createdAt,value
2023-04-16T00:02:01.511Z,10.16
2023-04-16T00:04:28.511Z,10.11
2023-04-16T00:06:55.448Z,10.12
2023-04-16T00:09:22.399Z,10.08
2023-04-16T00:11:49.244Z,10.06
2023-04-16T00:14:16.145Z,10.01
2023-04-16T00:16:43.004Z,10.05
2023-04-16T00:19:10.126Z,10.05
2023-04-16T00:21:37.117Z,10.07
2023-04-16T00:24:03.983Z,10.12
2023-04-16T00:26:30.934Z,10.08
2023-04-16T00:28:57.774Z,9.96
2023-04-16T00:31:34.170Z,9.87
2023-04-16T00:34:01.086Z,9.93
2023-04-16T00:36:28.813Z,10.01
2023-04-16T00:38:56.760Z,10.00
2023-04-16T00:41:23.931Z,10.02
2023-04-16T00:43:51.568Z,10.05
2023-04-16T00:46:21.895Z,9.94
2023-04-16T00:48:49.641Z,9.90
2023-04-16T00:51:20.205Z,9.97
2023-04-16T00:53:47.558Z,9.98
2023-04-16T00:56:14.723Z,10.02
2023-04-16T00:58:41.614Z,9.99
2023-04-16T01:01:08.691Z,10.09
2023-04-16T01:03:41.080Z,10.01
2023-04-16T01:06:08.330Z,10.05
2023-04-16T01:08:35.405Z,10.00
2023-04-16T01:11:02.560Z,10.05
2023-04-16T01:13:30.219Z,10.05
2023-04-16T01:15:57.234Z,9.98
2023-04-16T01:18:25.916Z,9.88
2023-04-16T01:20:52.927Z,9.90
2023-04-16T01:23:19.944Z,9.96
2023-04-16T01:25:47.154Z,9.94
2023-04-16T01:28:14.239Z,10.01
2023-04-16T01:30:41.492Z,9.98
2023-04-16T01:33:12.813Z,9.97
2023-04-16T01:35:41.136Z,9.96
2023-04-16T01:38:09.599Z,10.06
2023-04-16T01:40:37.590Z,9.98
2023-04-16T01:43:04.921Z,9.99
2023-04-16T01:45:34.787Z,10.00
2023-04-16T01:48:02.141Z,9.97
2023-04-16T01:50:30.940Z,10.02
2023-04-16T01:52:57.757Z,9.99
2023-04-16T01:55:24.723Z,10.02
2023-04-16T01:57:51.565Z,9.99
2023-04-16T02:00:18.494Z,9.98
2023-04-16T02:02:46.374Z,10.02
2023-04-16T02:05:13.317Z,10.04
2023-04-16T02:07:40.130Z,9.89
2023-04-16T02:10:08.850Z,10.04
2023-04-16T02:12:35.664Z,10.00
2023-04-16T02:15:03.344Z,9.92
2023-04-16T02:17:30.248Z,9.95
2023-04-16T02:19:57.092Z,10.01
2023-04-16T02:22:23.910Z,9.96
2023-04-16T02:24:51.177Z,9.99
2023-04-16T02:27:17.978Z,9.99
2023-04-16T02:29:44.806Z,10.01
2023-04-16T02:32:11.909Z,10.05
2023-04-16T02:34:40.279Z,10.11
2023-04-16T02:37:07.197Z,10.08
2023-04-16T02:39:34.100Z,10.07
2023-04-16T02:42:02.505Z,10.11
2023-04-16T02:44:29.849Z,10.06
2023-04-16T02:46:56.689Z,9.94
2023-04-16T02:49:23.863Z,10.04
2023-04-16T02:51:50.714Z,10.08
2023-04-16T02:54:17.536Z,10.01
2023-04-16T02:56:44.333Z,9.99
2023-04-16T02:59:11.291Z,9.92
2023-04-16T03:01:38.309Z,9.90
2023-04-16T03:04:05.423Z,9.86
2023-04-16T03:06:32.696Z,9.96
2023-04-16T03:08:59.581Z,9.94
2023-04-16T03:11:26.378Z,9.96
2023-04-16T03:13:53.847Z,9.96
2023-04-16T03:16:20.725Z,9.93
2023-04-16T03:18:47.589Z,9.93
2023-04-16T03:21:14.382Z,9.95
2023-04-16T03:23:41.276Z,10.00
2023-04-16T03:26:08.075Z,9.99
2023-04-16T03:28:34.895Z,10.04
2023-04-16T03:31:01.725Z,10.04
2023-04-16T03:33:28.572Z,10.01
2023-04-16T03:35:59.056Z,10.01
2023-04-16T03:38:26.607Z,9.99
2023-04-16T03:40:53.488Z,10.07
2023-04-16T03:43:20.608Z,10.06
2023-04-16T03:45:47.838Z,10.09
2023-04-16T03:48:14.727Z,10.07
2023-04-16T03:50:47.208Z,10.07
2023-04-16T03:53:14.246Z,9.86
2023-04-16T03:55:41.937Z,10.01
2023-04-16T03:58:09.155Z,10.02
2023-04-16T04:00:36.148Z,9.97
2023-04-16T04:03:03.270Z,10.01
2023-04-16T04:05:30.307Z,10.04
2023-04-16T04:07:57.166Z,10.05
2023-04-16T04:10:23.979Z,10.08
2023-04-16T04:12:50.765Z,10.07
2023-04-16T04:15:17.722Z,10.05
2023-04-16T04:17:44.552Z,9.83
2023-04-16T04:20:12.238Z,10.00
2023-04-16T04:22:39.078Z,9.93
2023-04-16T04:25:06.417Z,9.94
2023-04-16T04:27:33.232Z,9.98
2023-04-16T04:30:00.022Z,9.93
2023-04-16T04:32:26.881Z,9.95
2023-04-16T04:34:53.699Z,9.83
2023-04-16T04:37:21.039Z,9.73
2023-04-16T04:39:47.968Z,9.82
2023-04-16T04:42:18.235Z,9.83
2023-04-16T04:44:46.020Z,9.80
2023-04-16T04:47:13.236Z,9.84
2023-04-16T04:49:40.456Z,9.76
2023-04-16T04:52:08.108Z,9.70
2023-04-16T04:54:34.947Z,9.65
2023-04-16T04:57:01.897Z,9.63
2023-04-16T04:59:28.915Z,9.72
2023-04-16T05:01:55.757Z,9.65
2023-04-16T05:04:22.571Z,9.60
2023-04-16T05:06:49.384Z,9.60
2023-04-16T05:09:16.360Z,9.66
2023-04-16T05:11:43.248Z,9.65
2023-04-16T05:14:10.086Z,9.68
2023-04-16T05:16:38.025Z,9.63
2023-04-16T05:19:05.078Z,9.71
2023-04-16T05:21:31.872Z,9.63
2023-04-16T05:23:59.138Z,9.70
2023-04-16T05:26:26.101Z,9.62
2023-04-16T05:28:53.011Z,9.63
2023-04-16T05:31:19.963Z,9.72
2023-04-16T05:33:46.894Z,9.78
2023-04-16T05:36:13.689Z,9.72
2023-04-16T05:38:40.575Z,9.74
2023-04-16T05:41:07.406Z,9.73
2023-04-16T05:43:34.213Z,9.72
2023-04-16T05:46:01.097Z,9.69
2023-04-16T05:48:27.950Z,9.71
2023-04-16T05:50:54.754Z,9.69
2023-04-16T05:53:22.138Z,9.73
2023-04-16T05:55:48.992Z,9.74
2023-04-16T05:58:15.842Z,9.79
2023-04-16T06:00:42.662Z,9.75
2023-04-16T06:03:09.646Z,9.63
2023-04-16T06:05:36.685Z,9.57
2023-04-16T06:08:03.491Z,9.59
2023-04-16T06:10:30.409Z,9.57
2023-04-16T06:12:57.228Z,9.66
2023-04-16T06:15:24.036Z,9.70
2023-04-16T06:17:51.222Z,9.73
2023-04-16T06:20:18.180Z,9.75
2023-04-16T06:22:45.039Z,9.68
2023-04-16T06:25:11.938Z,9.67
2023-04-16T06:27:38.811Z,9.74
2023-04-16T06:30:12.184Z,9.69
2023-04-16T06:32:39.161Z,9.60
2023-04-16T06:35:06.834Z,9.60
2023-04-16T06:37:33.619Z,9.62
2023-04-16T06:40:00.429Z,9.67
2023-04-16T06:42:27.518Z,9.73
2023-04-16T06:44:54.419Z,9.75
2023-04-16T06:47:21.417Z,9.77
2023-04-16T06:49:48.311Z,9.80
2023-04-16T06:52:15.352Z,9.74
2023-04-16T06:54:42.204Z,9.76
2023-04-16T06:57:08.995Z,9.75
2023-04-16T06:59:36.008Z,9.70
2023-04-16T07:02:02.864Z,9.76
2023-04-16T07:04:29.745Z,9.73
2023-04-16T07:06:56.536Z,9.71
2023-04-16T07:09:23.367Z,9.68
2023-04-16T07:11:50.168Z,9.72
2023-04-16T07:14:17.231Z,9.73
2023-04-16T07:16:44.066Z,9.78
2023-04-16T07:19:11.365Z,9.79
2023-04-16T07:21:38.345Z,9.70
2023-04-16T07:24:05.323Z,9.64
2023-04-16T07:26:32.241Z,9.74
2023-04-16T07:28:59.084Z,9.71
2023-04-16T07:31:25.946Z,9.80
2023-04-16T07:33:52.867Z,9.76
2023-04-16T07:36:19.662Z,9.81
2023-04-16T07:38:46.462Z,9.80
2023-04-16T07:41:13.932Z,9.77
2023-04-16T07:43:40.795Z,9.73
2023-04-16T07:46:07.854Z,9.81
2023-04-16T07:48:34.705Z,9.88
2023-04-16T07:51:01.566Z,9.88
2023-04-16T07:53:28.410Z,9.93
2023-04-16T07:55:56.086Z,9.94
2023-04-16T07:58:22.889Z,9.98
2023-04-16T08:00:50.990Z,9.95
2023-04-16T08:03:18.509Z,9.93
2023-04-16T08:05:45.636Z,9.94
2023-04-16T08:08:12.447Z,9.94
2023-04-16T08:10:39.684Z,9.87
2023-04-16T08:13:06.517Z,9.99
2023-04-16T08:15:33.356Z,9.97
2023-04-16T08:18:00.369Z,9.97
2023-04-16T08:20:27.349Z,10.02
2023-04-16T08:22:54.860Z,9.90
2023-04-16T08:25:23.689Z,9.98
2023-04-16T08:27:50.986Z,9.95
2023-04-16T08:30:17.911Z,9.99
2023-04-16T08:32:44.892Z,9.91
2023-04-16T08:35:12.270Z,9.96
2023-04-16T08:37:39.072Z,9.97
2023-04-16T08:40:06.925Z,9.96
2023-04-16T08:42:40.689Z,9.92
2023-04-16T08:45:15.798Z,9.87
2023-04-16T08:47:46.970Z,9.84
2023-04-16T08:50:22.976Z,9.81
2023-04-16T08:52:59.130Z,9.77
2023-04-16T08:55:37.594Z,9.75
2023-04-16T08:58:16.170Z,9.79
2023-04-16T09:00:44.159Z,9.97
2023-04-16T09:03:11.310Z,9.92
2023-04-16T09:05:39.180Z,9.95
2023-04-16T09:08:06.935Z,9.82
2023-04-16T09:10:34.334Z,9.82
2023-04-16T09:13:01.444Z,9.82
2023-04-16T09:15:29.408Z,9.88
2023-04-16T09:17:59.359Z,9.91
2023-04-16T09:20:26.222Z,9.82
2023-04-16T09:22:53.144Z,9.81
2023-04-16T09:25:22.588Z,9.94
2023-04-16T09:27:52.672Z,9.97
2023-04-16T09:30:24.995Z,9.98
2023-04-16T09:33:13.576Z,9.98
2023-04-16T09:35:51.738Z,9.98
2023-04-16T09:38:20.362Z,9.93
2023-04-16T09:40:47.588Z,10.01
2023-04-16T09:43:17.199Z,9.91
2023-04-16T09:45:52.257Z,9.97
2023-04-16T09:48:33.144Z,9.93
2023-04-16T09:51:01.154Z,9.95
2023-04-16T09:53:30.706Z,9.83
2023-04-16T09:56:05.130Z,9.93
2023-04-16T09:58:32.903Z,9.93
2023-04-16T10:01:13.198Z,9.91
2023-04-16T10:03:41.233Z,10.02
2023-04-16T10:06:15.695Z,10.02
2023-04-16T10:08:50.399Z,10.06
2023-04-16T10:11:19.189Z,10.15
2023-04-16T10:13:46.603Z,10.11
2023-04-16T10:16:13.695Z,10.16
2023-04-16T10:18:43.398Z,10.13
2023-04-16T10:21:12.695Z,10.08
2023-04-16T10:23:40.561Z,10.07
2023-04-16T10:26:07.434Z,10.06
2023-04-16T10:28:35.619Z,10.06
2023-04-16T10:31:09.168Z,10.04
2023-04-16T10:33:40.816Z,10.08
2023-04-16T10:36:12.547Z,9.96
2023-04-16T10:38:59.738Z,10.12
2023-04-16T10:41:27.610Z,10.12
2023-04-16T10:44:09.842Z,10.14
2023-04-16T10:46:42.564Z,10.19
2023-04-16T10:49:26.403Z,10.19
2023-04-16T10:52:14.810Z,10.19
2023-04-16T10:54:41.684Z,10.11
2023-04-16T10:57:17.751Z,10.12
2023-04-16T10:59:45.278Z,10.07
2023-04-16T11:02:17.867Z,10.11
2023-04-16T11:04:47.250Z,10.13
2023-04-16T11:07:18.132Z,10.11
2023-04-16T11:10:07.760Z,10.02
2023-04-16T11:12:37.923Z,10.14
2023-04-16T11:15:09.234Z,10.11
2023-04-16T11:17:41.053Z,10.10
2023-04-16T11:20:20.223Z,10.11
2023-04-16T11:22:52.623Z,10.18
2023-04-16T11:25:30.414Z,10.17
2023-04-16T11:27:59.091Z,10.19
2023-04-16T11:30:38.230Z,10.18
2023-04-16T11:33:12.193Z,10.03
2023-04-16T11:35:39.822Z,10.01
2023-04-16T11:38:07.333Z,10.03
2023-04-16T11:40:34.851Z,10.09
2023-04-16T11:43:05.023Z,10.08
2023-04-16T11:45:31.833Z,10.15
2023-04-16T11:47:58.769Z,10.21
2023-04-16T11:50:28.141Z,10.27
2023-04-16T11:52:57.659Z,10.18
2023-04-16T11:55:24.834Z,10.21
2023-04-16T11:57:52.642Z,10.29
2023-04-16T12:00:23.101Z,10.17
2023-04-16T12:02:54.688Z,10.23
2023-04-16T12:05:35.637Z,10.39
2023-04-16T12:08:06.248Z,10.25
2023-04-16T12:10:36.301Z,10.29
2023-04-16T12:13:14.499Z,10.08
2023-04-16T12:15:53.265Z,10.32
2023-04-16T12:18:23.217Z,10.27
2023-04-16T12:20:53.683Z,10.19
2023-04-16T12:23:34.066Z,10.20
2023-04-16T12:26:10.575Z,10.21
2023-04-16T12:28:39.276Z,10.30
2023-04-16T12:31:07.449Z,10.23
2023-04-16T12:33:34.358Z,10.26
2023-04-16T12:36:02.341Z,10.28
2023-04-16T12:38:29.846Z,10.29
2023-04-16T12:40:58.253Z,10.42
2023-04-16T12:43:25.900Z,10.36
2023-04-16T12:45:53.012Z,10.36
2023-04-16T12:48:20.019Z,10.40
2023-04-16T12:50:46.908Z,10.44
2023-04-16T12:53:13.753Z,10.47
2023-04-16T12:55:40.663Z,10.32
2023-04-16T12:58:10.574Z,10.35
2023-04-16T13:00:39.878Z,10.37
2023-04-16T13:03:06.769Z,10.49
2023-04-16T13:05:34.006Z,10.45
2023-04-16T13:08:01.128Z,10.39
2023-04-16T13:10:27.999Z,10.42
2023-04-16T13:12:54.842Z,10.43
2023-04-16T13:15:21.652Z,10.44
2023-04-16T13:17:48.546Z,10.33
2023-04-16T13:20:15.485Z,10.30
2023-04-16T13:22:42.313Z,10.38
2023-04-16T13:25:10.253Z,10.29
2023-04-16T13:27:37.080Z,10.35
2023-04-16T13:30:04.063Z,10.32
2023-04-16T13:32:31.207Z,10.28
2023-04-16T13:34:58.050Z,10.31
2023-04-16T13:37:24.925Z,10.25
2023-04-16T13:39:51.775Z,10.23
2023-04-16T13:42:18.594Z,10.25
2023-04-16T13:44:48.831Z,10.29
2023-04-16T13:47:16.053Z,10.29
2023-04-16T13:49:42.895Z,10.33
2023-04-16T13:52:09.692Z,10.38
2023-04-16T13:54:36.498Z,10.39
2023-04-16T13:57:03.323Z,10.44
2023-04-16T13:59:30.192Z,10.45
2023-04-16T14:01:57.677Z,10.45
2023-04-16T14:04:24.615Z,10.51
2023-04-16T14:06:51.602Z,10.47
2023-04-16T14:09:18.488Z,10.51
2023-04-16T14:11:45.426Z,10.45
2023-04-16T14:14:12.305Z,10.56
2023-04-16T14:16:39.219Z,10.59
2023-04-16T14:19:06.079Z,10.62
2023-04-16T14:21:32.895Z,10.61
2023-04-16T14:23:59.692Z,10.42
2023-04-16T14:26:26.541Z,10.57
2023-04-16T14:28:53.349Z,10.59
2023-04-16T14:31:20.784Z,10.54
2023-04-16T14:33:47.616Z,10.58
2023-04-16T14:36:14.446Z,10.60
2023-04-16T14:38:43.181Z,10.66
2023-04-16T14:41:11.955Z,10.58
2023-04-16T14:43:41.242Z,10.59
2023-04-16T14:46:08.103Z,10.61
2023-04-16T14:48:34.932Z,10.54
2023-04-16T14:51:01.798Z,10.59
2023-04-16T14:53:29.071Z,10.58
2023-04-16T14:55:58.931Z,10.55
2023-04-16T14:58:26.386Z,10.57
2023-04-16T15:00:53.576Z,10.56
2023-04-16T15:03:20.775Z,10.62
2023-04-16T15:05:54.726Z,10.63
2023-04-16T15:08:22.750Z,10.58
2023-04-16T15:10:50.448Z,10.59
2023-04-16T15:13:17.545Z,10.60
2023-04-16T15:15:44.613Z,10.64
2023-04-16T15:18:11.474Z,10.68
2023-04-16T15:20:38.323Z,10.68
2023-04-16T15:23:05.160Z,10.68
2023-04-16T15:25:32.084Z,10.70
2023-04-16T15:27:59.395Z,10.69
2023-04-16T15:30:26.395Z,10.70
2023-04-16T15:32:54.999Z,10.66
2023-04-16T15:35:22.060Z,10.62
2023-04-16T15:37:48.898Z,10.52
2023-04-16T15:40:18.687Z,10.57
2023-04-16T15:42:45.588Z,10.65
2023-04-16T15:45:12.418Z,10.60
2023-04-16T15:47:41.638Z,10.51
2023-04-16T15:50:09.005Z,10.57
2023-04-16T15:52:36.429Z,10.61
2023-04-16T15:55:04.334Z,10.56
2023-04-16T15:57:31.396Z,10.65
2023-04-16T16:02:29.778Z,10.63
2023-04-16T16:04:56.802Z,10.55
2023-04-16T16:07:25.159Z,10.52
2023-04-16T16:09:53.064Z,10.57
2023-04-16T16:12:19.942Z,10.55
2023-04-16T16:14:46.763Z,10.61
2023-04-16T16:17:13.589Z,10.59
2023-04-16T16:19:40.406Z,10.52
2023-04-16T16:22:07.793Z,10.59
2023-04-16T16:24:34.633Z,10.61
2023-04-16T16:27:01.626Z,10.59
2023-04-16T16:29:28.444Z,10.63
2023-04-16T16:31:55.305Z,10.55
2023-04-16T16:34:22.161Z,10.53
2023-04-16T16:36:49.275Z,10.54
2023-04-16T16:39:16.405Z,10.57
2023-04-16T16:41:43.224Z,10.60
2023-04-16T16:44:10.313Z,10.59
2023-04-16T16:46:37.264Z,10.63
2023-04-16T16:49:05.957Z,10.58
2023-04-16T16:51:33.886Z,10.57
2023-04-16T16:54:01.040Z,10.57
2023-04-16T16:56:28.110Z,10.64
2023-04-16T16:58:54.986Z,10.65
2023-04-16T17:01:21.829Z,10.61
2023-04-16T17:03:48.824Z,10.67
2023-04-16T17:06:15.724Z,10.70
2023-04-16T17:08:42.582Z,10.72
2023-04-16T17:11:09.476Z,10.67
2023-04-16T17:13:36.388Z,10.65
2023-04-16T17:16:03.276Z,10.52
2023-04-16T17:18:30.119Z,10.59
2023-04-16T17:20:56.949Z,10.55
2023-04-16T17:23:23.855Z,10.66
2023-04-16T17:25:50.687Z,10.61
2023-04-16T17:28:17.499Z,10.65
2023-04-16T17:30:44.837Z,10.66
2023-04-16T17:33:11.700Z,10.66
2023-04-16T17:35:40.500Z,10.66
2023-04-16T17:38:07.337Z,10.66
2023-04-16T17:40:34.147Z,10.63
2023-04-16T17:43:00.965Z,10.69
2023-04-16T17:45:27.896Z,10.66
2023-04-16T17:47:54.807Z,10.72
2023-04-16T17:50:21.698Z,10.71
2023-04-16T17:52:48.654Z,10.74
2023-04-16T17:55:16.693Z,10.72
2023-04-16T17:57:44.656Z,10.76
2023-04-16T18:00:12.519Z,10.78
2023-04-16T18:02:40.848Z,10.77
2023-04-16T18:05:09.013Z,10.66
2023-04-16T18:07:36.472Z,10.71
2023-04-16T18:10:03.431Z,10.65
2023-04-16T18:12:30.320Z,10.68
2023-04-16T18:14:57.651Z,10.70
2023-04-16T18:17:24.452Z,10.69
2023-04-16T18:19:51.499Z,10.73
2023-04-16T18:22:18.316Z,10.68
2023-04-16T18:24:45.163Z,10.70
2023-04-16T18:27:12.521Z,10.74
2023-04-16T18:29:40.502Z,10.72
2023-04-16T18:32:09.900Z,10.70
2023-04-16T18:34:38.706Z,10.54
2023-04-16T18:37:05.567Z,10.65
2023-04-16T18:39:36.691Z,10.70
2023-04-16T18:42:03.935Z,10.67
2023-04-16T18:44:30.832Z,10.68
2023-04-16T18:46:57.737Z,10.70
2023-04-16T18:49:25.296Z,10.68
2023-04-16T18:51:55.673Z,10.67
2023-04-16T18:54:23.140Z,10.68
2023-04-16T18:56:49.973Z,10.69
2023-04-16T18:59:16.816Z,10.71
2023-04-16T19:01:43.728Z,10.74
2023-04-16T19:04:10.685Z,10.69
2023-04-16T19:06:37.566Z,10.75
2023-04-16T19:09:04.425Z,10.74
2023-04-16T19:11:31.247Z,10.77
2023-04-16T19:13:58.165Z,10.68
2023-04-16T19:16:25.118Z,10.82
2023-04-16T19:18:52.069Z,10.83
2023-04-16T19:21:18.883Z,10.75
2023-04-16T19:23:45.850Z,10.81
2023-04-16T19:26:12.701Z,10.70
2023-04-16T19:28:39.684Z,10.75
2023-04-16T19:31:06.669Z,10.74
2023-04-16T19:33:33.517Z,10.68
2023-04-16T19:36:01.703Z,10.64
2023-04-16T19:38:29.149Z,10.71
2023-04-16T19:40:55.963Z,10.67
2023-04-16T19:43:22.758Z,10.71
2023-04-16T19:45:53.446Z,10.70
2023-04-16T19:48:21.377Z,10.70
2023-04-16T19:50:48.695Z,10.71
2023-04-16T19:53:17.158Z,10.67
2023-04-16T19:55:44.078Z,10.68
2023-04-16T19:58:10.950Z,10.65
2023-04-16T20:00:43.530Z,10.68
2023-04-16T20:03:10.802Z,10.65
2023-04-16T20:05:37.902Z,10.59
2023-04-16T20:08:05.042Z,10.62
2023-04-16T20:10:31.971Z,10.64
2023-04-16T20:12:58.863Z,10.63
2023-04-16T20:15:25.752Z,10.63
2023-04-16T20:17:53.257Z,10.62
2023-04-16T20:20:22.591Z,10.61
2023-04-16T20:22:49.933Z,10.60
2023-04-16T20:25:18.867Z,10.64
2023-04-16T20:27:45.849Z,10.68
2023-04-16T20:30:13.712Z,10.50
2023-04-16T20:32:40.587Z,10.66
2023-04-16T20:35:10.710Z,10.66
2023-04-16T20:37:38.573Z,10.50
2023-04-16T20:40:09.463Z,10.66
2023-04-16T20:42:36.407Z,10.66
2023-04-16T20:45:03.325Z,10.66
2023-04-16T20:47:30.451Z,10.38
2023-04-16T20:49:58.151Z,10.61
2023-04-16T20:52:24.962Z,10.61
2023-04-16T20:54:52.318Z,10.55
2023-04-16T20:57:19.238Z,10.60
2023-04-16T20:59:46.123Z,10.58
2023-04-16T21:02:13.190Z,10.59
2023-04-16T21:04:40.468Z,10.59
2023-04-16T21:07:07.626Z,10.58
2023-04-16T21:09:35.680Z,10.62
2023-04-16T21:12:02.734Z,10.62
2023-04-16T21:14:29.636Z,10.62
2023-04-16T21:16:56.465Z,10.63
2023-04-16T21:19:23.281Z,10.62
2023-04-16T21:21:50.069Z,10.62
2023-04-16T21:24:16.886Z,10.60
2023-04-16T21:26:43.689Z,10.58
2023-04-16T21:29:10.934Z,10.57
2023-04-16T21:31:38.129Z,10.54
2023-04-16T21:34:05.002Z,10.56
2023-04-16T21:36:33.595Z,10.56
2023-04-16T21:39:00.448Z,10.56
2023-04-16T21:41:27.617Z,10.56
2023-04-16T21:43:54.432Z,10.58
2023-04-16T21:46:21.397Z,10.57
2023-04-16T21:48:49.635Z,10.58
2023-04-16T21:51:16.690Z,10.61
2023-04-16T21:53:43.676Z,10.55
2023-04-16T21:56:10.688Z,10.53
2023-04-16T21:58:37.517Z,10.54
2023-04-16T22:01:04.365Z,10.54
2023-04-16T22:03:31.395Z,10.54
2023-04-16T22:06:00.913Z,10.55
2023-04-16T22:08:32.065Z,10.54
2023-04-16T22:11:01.483Z,10.51
2023-04-16T22:13:32.113Z,10.55
2023-04-16T22:16:01.983Z,10.53
2023-04-16T22:18:33.067Z,10.53
2023-04-16T22:21:00.610Z,10.53
2023-04-16T22:23:27.556Z,10.53
2023-04-16T22:25:56.720Z,10.56
2023-04-16T22:28:23.761Z,10.57
2023-04-16T22:30:51.034Z,10.56
2023-04-16T22:33:17.928Z,10.51
2023-04-16T22:35:44.825Z,10.55
2023-04-16T22:38:11.656Z,10.60
2023-04-16T22:40:38.462Z,10.55
2023-04-16T22:43:05.745Z,10.57
2023-04-16T22:45:32.580Z,10.57
2023-04-16T22:47:59.423Z,10.58
2023-04-16T22:50:26.347Z,10.61
2023-04-16T22:52:53.153Z,10.65
2023-04-16T22:55:20.030Z,10.64
2023-04-16T22:57:47.482Z,10.65
2023-04-16T23:00:17.817Z,10.59
2023-04-16T23:02:45.472Z,10.58
2023-04-16T23:05:12.580Z,10.60
2023-04-16T23:07:39.452Z,10.60
2023-04-16T23:10:08.446Z,10.63
2023-04-16T23:12:37.402Z,10.67
2023-04-16T23:15:06.590Z,10.63
2023-04-16T23:17:33.947Z,10.64
2023-04-16T23:20:00.885Z,10.63
2023-04-16T23:22:27.872Z,10.59
2023-04-16T23:24:54.775Z,10.61
2023-04-16T23:27:21.630Z,10.61
2023-04-16T23:29:48.491Z,10.62
2023-04-16T23:32:15.305Z,10.56
2023-04-16T23:34:42.294Z,10.53
2023-04-16T23:37:09.150Z,10.51
2023-04-16T23:39:35.963Z,10.53
2023-04-16T23:42:03.100Z,10.59
2023-04-16T23:44:29.935Z,10.61
2023-04-16T23:46:57.386Z,10.56
2023-04-16T23:49:24.458Z,10.55
2023-04-16T23:51:51.250Z,10.59
2023-04-16T23:54:18.142Z,10.60
2023-04-16T23:56:44.984Z,10.62
2023-04-16T23:59:12.290Z,10.65
